Terminal Aerodrome Forecast
Issued by NWS

Home | Current Version | Previous Version | Text Only | Print | Product List | Glossary Off
Versions: 1 2 3 4 5 6 7 8 9 10 11 12 13 14 15 16 17 18 19 20 21 22 23 24

086
FTUS43 KICT 051145 CCA
TAFCNU
TAF COR
KCNU 051145Z 0512/0612 18005KT 5SM BR SCT015
      TEMPO 0512/0514 2SM BR
     FM051500 18012KT P6SM SCT250
     FM060000 VRB05KT P6SM BKN250
     FM060600 34015G25KT P6SM BKN050=

USA.gov is the U.S. government's official web portal to all federal, state and local government web resources and services.